TimeMST,TemperatureF,Dew PointF,Humidity,Sea Level PressureIn,VisibilityMPH,Wind Direction,Wind SpeedMPH,Gust SpeedMPH,PrecipitationIn,Events,Conditions,WindDirDegrees,DateUTC
12:54 AM,33.1,16.0,50,30.21,10.0,SE,5.8,-,N/A,,Clear,140,2012-12-04 07:54:00
1:54 AM,25.0,12.9,60,30.28,10.0,NNE,11.5,-,N/A,,Clear,30,2012-12-04 08:54:00
2:54 AM,24.1,14.0,65,30.30,10.0,NNE,8.1,-,N/A,,Clear,20,2012-12-04 09:54:00
3:54 AM,25.0,14.0,63,30.31,10.0,North,4.6,-,N/A,,Clear,10,2012-12-04 10:54:00
4:54 AM,25.0,14.0,63,30.36,10.0,North,8.1,-,N/A,,Clear,10,2012-12-04 11:54:00
5:54 AM,24.1,14.0,65,30.40,10.0,North,9.2,-,N/A,,Clear,360,2012-12-04 12:54:00
6:54 AM,25.0,15.1,66,30.41,10.0,North,8.1,-,N/A,,Clear,10,2012-12-04 13:54:00
7:54 AM,28.9,16.0,58,30.42,10.0,North,6.9,-,N/A,,Clear,10,2012-12-04 14:54:00
8:54 AM,43.0,19.0,38,30.36,10.0,North,4.6,-,N/A,,Clear,10,2012-12-04 15:54:00
9:54 AM,46.9,14.0,27,30.36,10.0,Calm,Calm,-,N/A,,Clear,0,2012-12-04 16:54:00
10:54 AM,48.2,14.0,25,30.33,10.0,SE,8.1,-,N/A,,Clear,130,2012-12-04 17:54:00
11:54 AM,50.0,14.0,24,30.30,10.0,South,6.9,-,N/A,,Clear,170,2012-12-04 18:54:00
12:54 PM,51.1,12.9,22,30.27,10.0,SSE,9.2,-,N/A,,Partly Cloudy,160,2012-12-04 19:54:00
1:54 PM,51.1,12.0,21,30.29,10.0,SSE,8.1,-,N/A,,Partly Cloudy,160,2012-12-04 20:54:00
2:54 PM,50.0,10.9,21,30.29,10.0,SSE,10.4,-,N/A,,Clear,150,2012-12-04 21:54:00
3:54 PM,48.0,12.0,24,30.27,10.0,SE,10.4,-,N/A,,Clear,130,2012-12-04 22:54:00
4:54 PM,43.0,10.9,27,30.31,10.0,ESE,4.6,-,N/A,,Clear,110,2012-12-04 23:54:00
5:54 PM,41.0,10.0,28,30.33,10.0,ESE,4.6,-,N/A,,Clear,110,2012-12-05 00:54:00
6:54 PM,35.1,9.0,34,30.36,10.0,NNE,3.5,-,N/A,,Clear,30,2012-12-05 01:54:00
7:54 PM,37.9,10.9,33,30.31,10.0,NW,3.5,-,N/A,,Clear,320,2012-12-05 02:54:00
8:54 PM,35.1,10.0,35,30.25,10.0,NNE,9.2,-,N/A,,Clear,30,2012-12-05 03:54:00
9:54 PM,39.9,10.9,31,30.21,10.0,NNW,9.2,-,N/A,,Clear,340,2012-12-05 04:54:00
10:54 PM,39.0,10.9,32,30.20,10.0,NNE,12.7,-,N/A,,Clear,20,2012-12-05 05:54:00
11:54 PM,37.9,10.9,33,30.20,10.0,North,5.8,-,N/A,,Clear,10,2012-12-05 06:54:00